Map

Track Data

SID SEASON NUMBER BASIN SUBBASIN NAME ISO_TIME NATURE LAT LON WMO_WIND WMO_PRES WMO_AGENCY TRACK_TYPE DIST2LAND LANDFALL IFLAG USA_AGENCY USA_ATCF_ID USA_LAT USA_LON USA_RECORD USA_STATUS USA_WIND USA_PRES USA_SSHS USA_R34_NE USA_R34_SE USA_R34_SW USA_R34_NW USA_R50_NE USA_R50_SE USA_R50_SW USA_R50_NW USA_R64_NE USA_R64_SE USA_R64_SW USA_R64_NW USA_POCI USA_ROCI USA_RMW USA_EYE TOKYO_LAT TOKYO_LON TOKYO_GRADE TOKYO_WIND TOKYO_PRES TOKYO_R50_DIR TOKYO_R50_LONG TOKYO_R50_SHORT TOKYO_R30_DIR TOKYO_R30_LONG TOKYO_R30_SHORT TOKYO_LAND CMA_LAT CMA_LON CMA_CAT CMA_WIND CMA_PRES HKO_LAT HKO_LON HKO_CAT HKO_WIND HKO_PRES NEWDELHI_LAT NEWDELHI_LON NEWDELHI_GRADE NEWDELHI_WIND NEWDELHI_PRES NEWDELHI_CI NEWDELHI_DP NEWDELHI_POCI REUNION_LAT REUNION_LON REUNION_TYPE REUNION_WIND REUNION_PRES REUNION_TNUM REUNION_CI REUNION_RMW REUNION_R34_NE REUNION_R34_SE REUNION_R34_SW REUNION_R34_NW REUNION_R50_NE REUNION_R50_SE REUNION_R50_SW REUNION_R50_NW REUNION_R64_NE REUNION_R64_SE REUNION_R64_SW REUNION_R64_NW BOM_LAT BOM_LON BOM_TYPE BOM_WIND BOM_PRES BOM_TNUM BOM_CI BOM_RMW BOM_R34_NE BOM_R34_SE BOM_R34_SW BOM_R34_NW BOM_R50_NE BOM_R50_SE BOM_R50_SW BOM_R50_NW BOM_R64_NE BOM_R64_SE BOM_R64_SW BOM_R64_NW BOM_ROCI BOM_POCI BOM_EYE BOM_POS_METHOD BOM_PRES_METHOD NADI_LAT NADI_LON NADI_CAT NADI_WIND NADI_PRES WELLINGTON_LAT WELLINGTON_LON WELLINGTON_WIND WELLINGTON_PRES DS824_LAT DS824_LON DS824_STAGE DS824_WIND DS824_PRES TD9636_LAT TD9636_LON TD9636_STAGE TD9636_WIND TD9636_PRES TD9635_LAT TD9635_LON TD9635_WIND TD9635_PRES TD9635_ROCI NEUMANN_LAT NEUMANN_LON NEUMANN_CLASS NEUMANN_WIND NEUMANN_PRES MLC_LAT MLC_LON MLC_CLASS MLC_WIND MLC_PRES USA_GUST BOM_GUST BOM_GUST_PER REUNION_GUST REUNION_GUST_PER USA_SEAHGT USA_SEARAD_NE USA_SEARAD_SE USA_SEARAD_SW USA_SEARAD_NW STORM_SPEED STORM_DIR
1958295N19090 1958 102 NI BB NOT_NAMED 1958-10-21 18:00:00 TS 18.6000 90.3000 main 315 315 O________O____ jtwc_io IO081958 18.6000 90.3000 -1 18.6000 90.3000 TC 4 302
1958295N19090 1958 102 NI BB NOT_NAMED 1958-10-21 21:00:00 TS 18.6925 90.1400 main 326 319 P________P____ IO081958 18.6925 90.1400 -1 18.6925 90.1400 TC 3 305
1958295N19090 1958 102 NI BB NOT_NAMED 1958-10-22 00:00:00 TS 18.8000 90.0000 main 326 313 O________O____ jtwc_io IO081958 18.8000 90.0000 -1 18.8000 90.0000 TC 25 3 316
1958295N19090 1958 102 NI BB NOT_NAMED 1958-10-22 03:00:00 TS 18.9311 89.8933 main 313 288 P________PO___ IO081958 18.9350 89.8925 -1 18.9350 89.8925 TC 25 18.9000 89.9000 1 4 327
1958295N19090 1958 102 NI BB NOT_NAMED 1958-10-22 06:00:00 TS 19.0966 89.7969 main 288 264 O________OP___ jtwc_io IO081958 19.1000 89.8000 -1 19.1000 89.8000 TC 25 19.0829 89.7844 1 4 332
1958295N19090 1958 102 NI BB NOT_NAMED 1958-10-22 09:00:00 TS 19.2816 89.6932 main 264 240 P________PP___ IO081958 19.2850 89.7000 -1 19.2850 89.7000 TC 25 19.2727 89.6750 1 4 334
1958295N19090 1958 102 NI BB NOT_NAMED 1958-10-22 12:00:00 TS 19.4920 89.5927 main 240 216 O________OP___ jtwc_io IO081958 19.5000 89.6000 -1 19.5000 89.6000 TC 25 19.4761 89.5780 1 5 336
1958295N19090 1958 102 NI BB NOT_NAMED 1958-10-22 15:00:00 TS 19.7283 89.4851 main 216 181 P________PO___ IO081958 19.7425 89.4776 -1 19.7425 89.4776 TC 25 19.7000 89.5000 1 5 341
1958295N19090 1958 102 NI BB NOT_NAMED 1958-10-22 18:00:00 TS 19.9831 89.4163 main 181 159 O________OP___ jtwc_io IO081958 20.0000 89.4000 -1 20.0000 89.4000 TC 25 19.9492 89.4488 1 5 354
1958295N19090 1958 102 NI BB NOT_NAMED 1958-10-22 21:00:00 TS 20.2349 89.4210 main 159 129 P________PP___ IO081958 20.2425 89.4125 -1 20.2425 89.4125 TC 30 20.2197 89.4381 1 5 8
1958295N19090 1958 102 NI BB NOT_NAMED 1958-10-23 00:00:00 TS 20.5018 89.4945 main 129 102 O________OP___ jtwc_io IO081958 20.5000 89.5000 -1 20.5000 89.5000 TC 35 20.5053 89.4834 1 6 17
1958295N19090 1958 102 NI BB NOT_NAMED 1958-10-23 03:00:00 TS 20.7950 89.6084 main 102 78 P________PO___ IO081958 20.7924 89.6126 -1 20.7924 89.6126 TC 30 20.8000 89.6000 2 7 26
1958295N19090 1958 102 NI BB NOT_NAMED 1958-10-23 06:00:00 TS 21.0909 89.7984 main 78 44 O________OP___ jtwc_io IO081958 21.1000 89.8000 -1 21.1000 89.8000 TC 25 21.0726 89.7951 2 7 36
1958295N19090 1958 102 NI BB NOT_NAMED 1958-10-23 09:00:00 TS 21.3801 90.0718 main 44 23 P________PP___ IO081958 21.3925 90.0775 -1 21.3925 90.0775 TC 25 21.3552 90.0603 2 8 43
1958295N19090 1958 102 NI BB NOT_NAMED 1958-10-23 12:00:00 TS 21.6867 90.3901 main 23 0 O________OP___ jtwc_io IO081958 21.7000 90.4000 -1 21.7000 90.4000 TC 25 21.6601 90.3704 2 9 42
1958295N19090 1958 102 NI BB NOT_NAMED 1958-10-23 15:00:00 TS 22.0233 90.6952 main 10 0 P________PO___ IO081958 22.0349 90.6927 -1 22.0349 90.6927 TC 25 22.0000 90.7000 1 9 39
1958295N19090 1958 102 NI BB NOT_NAMED 1958-10-23 18:00:00 TS 22.3934 91.0114 main 15 0 O________OP___ jtwc_io IO081958 22.4000 91.0000 -1 22.4000 91.0000 TC 25 22.3835 91.0284 1 10 38
1958295N19090 1958 102 NI BB NOT_NAMED 1958-10-23 21:00:00 TS 22.7970 91.3454 main 0 0 P________PP___ IO081958 22.7927 91.3395 -1 22.7927 91.3395 TC 25 22.8028 91.3532 1 10 37
1958295N19090 1958 102 NI BB NOT_NAMED 1958-10-24 00:00:00 TS 23.2228 91.6882 main 0 0 O________OP___ jtwc_io IO081958 23.2000 91.7000 -1 23.2000 91.7000 TC 25 23.2457 91.6764 1 11 34
1958295N19090 1958 102 NI BB NOT_NAMED 1958-10-24 03:00:00 NR 23.7000 92.0000 main 0 __________O___ IO081958 -1 TC 23.7000 92.0000 1 11 31

About IBTrACS Database

This database is a web-friendly format of International Best Track Archive for Climate Stewardship (IBTrACS), a global best track data archive curated by NOAA dating back to 1842.

Updated: 2021-12-03